Time;durP1;ratioP1;P1;durP2;ratioP2;P2;SDS_P1;SDS_P2;PMS_P1;PMS_P2;Temp;Humidity;BMP_temperature;BMP_pressure;BME280_temperature;BME280_humidity;BME280_pressure;Samples;Min_cycle;Max_cycle;Signal;HPM_P1;HPM_P2
2023/08/01 00:01:41;;;;;;;16.33;8.10;;;;;;;20.67;100.00;99951.72;123542;1102;104332;-78
2023/08/01 00:04:12;;;;;;;14.47;7.70;;;;;;;20.62;100.00;99947.29;123664;1102;104187;-78
2023/08/01 00:06:43;;;;;;;14.87;8.20;;;;;;;20.60;100.00;99951.77;123511;1102;104276;-77
2023/08/01 00:09:15;;;;;;;13.77;7.60;;;;;;;20.61;100.00;99952.64;123473;1102;104347;-79
2023/08/01 00:11:46;;;;;;;15.55;8.25;;;;;;;20.62;100.00;99955.28;123518;1102;104305;-78
2023/08/01 00:14:19;;;;;;;16.93;8.50;;;;;;;20.62;100.00;99946.42;123627;1102;104328;-78
2023/08/01 00:16:50;;;;;;;17.48;8.48;;;;;;;20.58;100.00;99950.89;123366;1103;104274;-77
2023/08/01 00:19:21;;;;;;;13.60;7.77;;;;;;;20.57;100.00;99950.91;123535;1102;104329;-79
2023/08/01 00:21:53;;;;;;;14.60;8.33;;;;;;;20.54;100.00;99949.20;123576;1102;104258;-78
2023/08/01 00:24:24;;;;;;;16.33;8.37;;;;;;;20.54;100.00;99950.98;123499;1102;104274;-77
2023/08/01 00:26:56;;;;;;;18.53;8.83;;;;;;;20.50;100.00;99952.79;123601;1102;104658;-78
2023/08/01 00:29:27;;;;;;;18.30;8.40;;;;;;;20.45;100.00;99952.86;123285;1102;104278;-77
2023/08/01 00:31:58;;;;;;;17.80;7.90;;;;;;;20.39;100.00;99955.59;123132;1102;104233;-77
2023/08/01 00:34:29;;;;;;;14.33;8.20;;;;;;;20.33;100.00;99945.02;123263;1102;104665;-77
2023/08/01 00:37:01;;;;;;;12.00;7.80;;;;;;;20.29;100.00;99944.19;123113;1103;104341;-76
2023/08/01 00:39:32;;;;;;;17.07;8.40;;;;;;;20.28;100.00;99946.88;123056;1102;104316;-77
2023/08/01 00:42:04;;;;;;;16.25;8.25;;;;;;;20.30;100.00;99939.73;123392;1102;104198;-77
2023/08/01 00:44:35;;;;;;;15.07;8.53;;;;;;;20.32;100.00;99937.95;123295;1102;104249;-76
2023/08/01 00:47:09;;;;;;;16.50;8.33;;;;;;;20.34;100.00;99935.27;123282;1102;104367;-76
2023/08/01 00:49:39;;;;;;;;;;;;;;;20.34;100.00;99938.80;123320;1103;104263;-78
2023/08/01 00:52:11;;;;;;;15.20;7.93;;;;;;;20.34;100.00;99936.14;123360;1102;104431;-77
2023/08/01 00:54:43;;;;;;;16.93;7.70;;;;;;;20.30;100.00;99939.73;123494;1102;104277;-77
2023/08/01 00:57:14;;;;;;;14.97;7.93;;;;;;;20.28;100.00;99937.09;123395;1102;104245;-77
2023/08/01 00:59:45;;;;;;;13.73;7.97;;;;;;;20.27;100.00;99939.77;123304;1102;104325;-78
2023/08/01 01:02:17;;;;;;;16.63;7.90;;;;;;;20.25;100.00;99938.92;123060;1103;104444;-77
2023/08/01 01:04:48;;;;;;;15.60;8.53;;;;;;;20.22;100.00;99938.96;123193;1105;104310;-76
2023/08/01 01:07:20;;;;;;;19.67;9.17;;;;;;;20.19;100.00;99931.87;123161;1102;104335;-76
2023/08/01 01:09:54;;;;;;;17.23;9.37;;;;;;;20.17;100.00;99932.82;123273;1102;104367;-77
2023/08/01 01:12:25;;;;;;;16.33;9.60;;;;;;;20.16;100.00;99929.25;123017;1105;104319;-76
2023/08/01 01:14:57;;;;;;;16.73;8.53;;;;;;;20.16;100.00;99925.72;123145;1102;104301;-80
2023/08/01 01:17:28;;;;;;;16.23;8.77;;;;;;;20.15;100.00;99919.52;123086;1102;104379;-80
2023/08/01 01:19:59;;;;;;;13.97;8.57;;;;;;;20.17;100.00;99927.50;123224;1102;104332;-77
2023/08/01 01:22:32;;;;;;;19.07;9.13;;;;;;;20.17;100.00;99922.16;123205;1102;104670;-77
2023/08/01 01:25:07;;;;;;;18.37;8.50;;;;;;;20.14;100.00;99923.08;123263;1102;104357;-76
2023/08/01 01:27:40;;;;;;;13.73;8.60;;;;;;;20.10;100.00;99922.24;123256;1102;104249;-78
2023/08/01 01:30:12;;;;;;;17.90;10.55;;;;;;;20.06;100.00;99919.64;123446;1102;104291;-78
2023/08/01 01:32:43;;;;;;;19.97;9.97;;;;;;;20.03;100.00;99922.34;123459;1102;104332;-77
2023/08/01 01:35:15;;;;;;;19.53;9.80;;;;;;;20.00;100.00;99912.59;123756;1102;104205;-76
2023/08/01 01:37:46;;;;;;;22.37;11.13;;;;;;;19.99;100.00;99909.95;123542;1102;104274;-77
2023/08/01 01:40:17;;;;;;;19.33;10.17;;;;;;;19.95;100.00;99911.78;123362;1102;104278;-77
2023/08/01 01:42:49;;;;;;;19.37;10.67;;;;;;;19.95;100.00;99916.23;123491;1105;104454;-77
2023/08/01 01:45:21;;;;;;;31.03;12.20;;;;;;;19.90;100.00;99916.29;123339;1102;104824;-76
2023/08/01 01:47:52;;;;;;;47.13;11.57;;;;;;;19.86;100.00;99925.20;123845;1102;104258;-81
2023/08/01 01:50:23;;;;;;;40.67;11.87;;;;;;;19.84;100.00;99924.34;123565;1102;104239;-77
2023/08/01 01:52:55;;;;;;;49.07;12.00;;;;;;;19.80;100.00;99925.27;123393;1105;104449;-77
2023/08/01 01:55:26;;;;;;;67.80;12.90;;;;;;;19.79;100.00;99929.72;123524;1102;104428;-77
2023/08/01 01:57:58;;;;;;;85.97;13.30;;;;;;;19.79;100.00;99926.16;123592;1105;104296;-76
2023/08/01 02:00:29;;;;;;;129.13;13.80;;;;;;;19.78;100.00;99922.63;123399;1103;104380;-77
2023/08/01 02:03:02;;;;;;;113.20;13.20;;;;;;;19.77;100.00;99927.97;123462;1102;104335;-76
2023/08/01 02:05:34;;;;;;;76.60;14.60;;;;;;;19.78;100.00;99932.40;123217;1102;104431;-77
2023/08/01 02:08:05;;;;;;;258.73;15.20;;;;;;;19.80;100.00;99933.25;123222;1102;104325;-77
2023/08/01 02:10:36;;;;;;;248.43;14.20;;;;;;;19.78;100.00;99932.40;123155;1102;104281;-76
2023/08/01 02:13:09;;;;;;;141.03;12.77;;;;;;;19.75;100.00;99935.93;123266;1105;104203;-76
2023/08/01 02:15:40;;;;;;;116.80;13.20;;;;;;;19.76;100.00;99932.38;123154;1102;104255;-77
2023/08/01 02:18:11;;;;;;;288.77;15.10;;;;;;;19.74;100.00;99943.05;123125;1103;104387;-76
2023/08/01 02:20:42;;;;;;;256.07;13.87;;;;;;;19.71;100.00;99945.73;123254;1104;104638;-78
2023/08/01 02:23:14;;;;;;;261.00;14.00;;;;;;;19.67;100.00;99941.34;123113;1102;104688;-77
2023/08/01 02:25:46;;;;;;;218.63;13.40;;;;;;;19.62;100.00;99940.52;123388;1102;104363;-77
2023/08/01 02:28:17;;;;;;;349.33;15.00;;;;;;;19.58;100.00;99936.11;123125;1105;104246;-76
2023/08/01 02:30:50;;;;;;;611.33;20.33;;;;;;;19.54;100.00;99932.61;123245;1102;104172;-76
2023/08/01 02:33:21;;;;;;;386.15;16.02;;;;;;;19.55;100.00;99937.01;123307;1103;107856;-76
2023/08/01 02:35:52;;;;;;;341.23;16.77;;;;;;;19.53;100.00;99941.47;123365;1103;104307;-77
2023/08/01 02:38:24;;;;;;;144.40;13.67;;;;;;;19.52;100.00;99942.36;123283;1102;104367;-77
2023/08/01 02:40:55;;;;;;;141.50;13.53;;;;;;;19.53;100.00;99940.60;125166;1102;102031;-78
2023/08/01 02:43:26;;;;;;;101.00;13.57;;;;;;;19.53;100.00;99940.60;125742;1102;104377;-82
2023/08/01 02:46:00;;;;;;;75.97;12.37;;;;;;;19.54;100.00;99947.66;125820;1102;102334;-81
2023/08/01 02:48:32;;;;;;;140.85;12.90;;;;;;;19.54;100.00;99945.91;125685;1102;104226;-77
2023/08/01 02:51:03;;;;;;;192.50;13.20;;;;;;;19.54;100.00;99950.33;123848;1102;104273;-76
2023/08/01 02:53:34;;;;;;;159.90;12.10;;;;;;;19.53;100.00;99940.60;123535;1102;104162;-77
2023/08/01 02:56:07;;;;;;;179.50;12.77;;;;;;;19.51;100.00;99943.28;123495;1102;104430;-77
2023/08/01 02:58:39;;;;;;;154.40;12.80;;;;;;;19.53;100.00;99941.47;123456;1102;104248;-77
2023/08/01 03:01:11;;;;;;;425.73;17.30;;;;;;;19.56;100.00;99940.58;123292;1105;104259;-77
2023/08/01 03:03:43;;;;;;;220.37;13.83;;;;;;;19.58;100.00;99949.41;123260;1102;104354;-76
2023/08/01 03:06:15;;;;;;;145.93;10.70;;;;;;;19.54;100.00;99945.91;123620;1101;104223;-76
2023/08/01 03:08:47;;;;;;;94.67;10.60;;;;;;;19.51;100.00;99961.00;123583;1102;104304;-76
2023/08/01 03:11:18;;;;;;;122.40;11.77;;;;;;;19.47;100.00;99964.61;123545;1102;104321;-77
2023/08/01 03:13:50;;;;;;;147.45;11.80;;;;;;;19.49;100.00;99962.80;123340;1102;104286;-81
2023/08/01 03:16:21;;;;;;;186.20;12.03;;;;;;;19.51;100.00;99969.89;123279;1102;104380;-76
2023/08/01 03:18:52;;;;;;;124.37;11.27;;;;;;;19.47;100.00;99972.59;123213;1102;104316;-80
2023/08/01 03:21:24;;;;;;;145.33;10.87;;;;;;;19.47;100.00;99977.91;123275;1104;104332;-77
2023/08/01 03:23:55;;;;;;;170.33;11.90;;;;;;;19.45;100.00;99974.39;123241;1102;104415;-76
2023/08/01 03:26:28;;;;;;;105.30;10.77;;;;;;;19.47;100.00;99983.23;123219;1102;104306;-77
2023/08/01 03:28:59;;;;;;;81.37;10.80;;;;;;;19.49;100.00;99981.43;123286;1102;104265;-76
2023/08/01 03:31:30;;;;;;;25.47;11.37;;;;;;;19.54;100.00;99979.59;123644;1102;104232;-76
2023/08/01 03:34:02;;;;;;;74.70;10.63;;;;;;;19.56;100.00;99983.15;123374;1101;104245;-77
2023/08/01 03:36:33;;;;;;;134.05;10.60;;;;;;;19.54;100.00;99982.27;123477;1102;104293;-76
2023/08/01 03:39:05;;;;;;;69.10;9.97;;;;;;;19.52;100.00;99976.95;123029;1102;104380;-75
2023/08/01 03:41:36;;;;;;;190.87;12.10;;;;;;;19.49;100.00;99976.11;123440;1102;104229;-76
2023/08/01 03:44:08;;;;;;;119.63;11.00;;;;;;;19.47;100.00;99980.57;123389;1102;105830;-76
2023/08/01 03:46:40;;;;;;;271.40;13.70;;;;;;;19.47;100.00;99978.78;123119;1105;104353;-77
2023/08/01 03:49:11;;;;;;;130.67;11.37;;;;;;;19.50;100.00;99984.08;122983;1102;104663;-74
2023/08/01 03:51:43;;;;;;;143.73;12.13;;;;;;;19.53;100.00;99981.39;123300;1102;104322;-76
2023/08/01 03:54:14;;;;;;;71.03;12.73;;;;;;;19.53;100.00;99980.52;123130;1102;104248;-75
2023/08/01 03:56:45;;;;;;;177.90;12.67;;;;;;;19.51;100.00;99985.85;123189;1102;104245;-75
2023/08/01 03:59:19;;;;;;;94.20;11.47;;;;;;;19.45;100.00;99982.38;123435;1102;104232;-75
2023/08/01 04:01:50;;;;;;;281.27;13.05;;;;;;;19.40;100.00;99985.95;123004;1102;104249;-75
2023/08/01 04:04:21;;;;;;;225.17;12.73;;;;;;;19.37;100.00;99985.10;123263;1102;104258;-77
2023/08/01 04:06:53;;;;;;;75.97;11.23;;;;;;;19.35;100.00;99982.45;123083;1102;104379;-75
2023/08/01 04:09:24;;;;;;;81.15;10.50;;;;;;;19.33;100.00;99981.56;123139;1102;104288;-76
2023/08/01 04:11:55;;;;;;;154.00;12.20;;;;;;;19.30;100.00;99981.59;123432;1102;104738;-75
2023/08/01 04:14:27;;;;;;;120.57;11.30;;;;;;;19.27;100.00;99975.42;123066;1102;104374;-76
2023/08/01 04:16:58;;;;;;;99.33;11.57;;;;;;;19.27;100.00;99978.08;122982;1102;104290;-77
2023/08/01 04:19:29;;;;;;;114.85;11.60;;;;;;;19.29;100.00;99985.16;123330;1102;104353;-76
2023/08/01 04:22:00;;;;;;;166.50;12.67;;;;;;;19.32;100.00;99984.23;123269;1102;104274;-76
2023/08/01 04:24:32;;;;;;;56.33;11.00;;;;;;;19.35;100.00;99989.53;123394;1102;104245;-79
2023/08/01 04:27:03;;;;;;;78.93;10.73;;;;;;;19.37;100.00;99988.63;123491;1102;104414;-77
2023/08/01 04:29:35;;;;;;;97.97;11.27;;;;;;;19.42;100.00;99987.72;123467;1102;104277;-77
2023/08/01 04:32:12;;;;;;;107.60;11.60;;;;;;;19.45;100.00;99983.25;123563;1102;104280;-79
2023/08/01 04:34:44;;;;;;;74.70;11.97;;;;;;;19.52;100.00;99986.72;123640;1102;104275;-80
2023/08/01 04:37:15;;;;;;;58.17;11.93;;;;;;;19.58;100.00;99984.88;123801;1105;104746;-80
2023/08/01 04:39:47;;;;;;;131.97;12.77;;;;;;;19.67;100.00;99980.39;123751;1102;104408;-79
2023/08/01 04:42:18;;;;;;;79.63;11.40;;;;;;;19.71;100.00;99992.75;123612;1102;104258;-77
2023/08/01 04:44:49;;;;;;;39.23;10.93;;;;;;;19.74;100.00;99990.96;124013;1102;104261;-79
2023/08/01 04:47:21;;;;;;;19.47;11.10;;;;;;;19.84;100.00;99988.23;124057;1102;104176;-79
2023/08/01 04:49:53;;;;;;;16.87;11.07;;;;;;;19.98;100.00;99986.30;124260;1102;104268;-78
2023/08/01 04:52:27;;;;;;;22.53;11.67;;;;;;;20.09;100.00;99989.72;124329;1102;104181;-80
2023/08/01 04:55:00;;;;;;;123.93;12.43;;;;;;;20.19;100.00;99995.80;124257;1102;104245;-79
2023/08/01 04:57:32;;;;;;;61.63;11.67;;;;;;;20.27;100.00;99987.72;124499;1102;104253;-83
2023/08/01 05:00:08;;;;;;;20.67;11.97;;;;;;;20.34;100.00;99983.22;124174;1102;104258;-82
2023/08/01 05:02:40;;;;;;;34.77;12.03;;;;;;;20.40;100.00;99981.35;124613;1105;101987;-79
2023/08/01 05:05:17;;;;;;;27.45;12.35;;;;;;;20.44;100.00;99983.09;123928;1102;104239;-78
2023/08/01 05:07:54;;;;;;;19.37;11.87;;;;;;;20.51;100.00;99980.34;124371;1102;104309;-82
2023/08/01 05:10:36;;;;;;;19.03;12.40;;;;;;;20.60;100.00;99978.42;125109;1102;104265;-81
2023/08/01 05:13:35;;;;;;;27.73;13.90;;;;;;;20.70;100.00;99979.20;125080;1102;103587;-83
2023/08/01 05:16:09;;;;;;;18.05;11.90;;;;;;;20.82;100.00;99979.03;124274;1102;104329;-84
2023/08/01 05:18:52;;;;;;;18.90;12.50;;;;;;;20.93;100.00;99989.54;124951;1102;104179;-79
2023/08/01 05:21:42;;;;;;;19.67;12.33;;;;;;;21.05;100.00;99990.25;124441;1102;105061;-82
2023/08/01 05:24:24;;;;;;;22.30;13.07;;;;;;;21.15;100.00;99989.21;125167;1102;104185;-78
2023/08/01 05:26:59;;;;;;;18.03;11.73;;;;;;;21.25;100.00;99984.59;124514;1102;103196;-79
2023/08/01 05:29:30;;;;;;;19.07;12.37;;;;;;;21.36;100.00;99977.28;125347;1102;103156;-82
2023/08/01 05:32:02;;;;;;;18.67;12.23;;;;;;;21.41;100.00;99969.20;125305;1102;104293;-79
2023/08/01 05:34:37;;;;;;;20.20;13.80;;;;;;;21.40;100.00;99973.67;125456;1102;102410;-77
2023/08/01 05:37:11;;;;;;;19.87;12.63;;;;;;;21.42;100.00;99982.52;124174;1102;104252;-82
2023/08/01 05:39:46;;;;;;;22.00;14.13;;;;;;;21.44;100.00;99980.73;125275;1102;102048;-81
2023/08/01 05:42:22;;;;;;;20.80;13.77;;;;;;;21.41;100.00;99986.12;125341;1105;102334;-80
2023/08/01 05:44:55;;;;;;;19.83;12.90;;;;;;;21.35;100.00;99981.75;125138;1102;102938;-81
2023/08/01 05:47:30;;;;;;;21.27;12.97;;;;;;;21.37;100.00;99974.59;125244;1102;102996;-80
2023/08/01 05:50:13;;;;;;;20.17;13.13;;;;;;;21.39;100.00;99976.37;124315;1102;104217;-81
2023/08/01 05:52:46;;;;;;;21.60;13.33;;;;;;;21.41;100.00;99970.11;125156;1102;104162;-81
2023/08/01 05:55:19;;;;;;;19.90;12.93;;;;;;;21.47;100.00;99972.67;124477;1102;103204;-78
2023/08/01 05:57:52;;;;;;;21.00;13.60;;;;;;;21.50;100.00;99969.98;124304;1105;104413;-81
2023/08/01 06:00:30;;;;;;;22.00;13.17;;;;;;;21.50;100.00;99972.65;125323;1102;104197;-81
2023/08/01 06:03:12;;;;;;;19.20;12.60;;;;;;;21.51;100.00;99969.05;125075;1105;104217;-80
2023/08/01 06:05:46;;;;;;;23.27;13.77;;;;;;;21.48;100.00;99969.07;124501;1105;104179;-84
2023/08/01 06:08:21;;;;;;;21.03;13.50;;;;;;;21.48;100.00;99976.20;125346;1105;104273;-83
2023/08/01 06:11:10;;;;;;;23.13;14.70;;;;;;;21.51;100.00;99968.18;125143;1106;104380;-80
2023/08/01 06:13:59;;;;;;;21.03;13.93;;;;;;;21.54;100.00;99958.31;126091;1102;102727;-83
2023/08/01 06:16:51;;;;;;;20.07;13.40;;;;;;;21.64;100.00;99967.03;125702;1102;102040;-82
2023/08/01 06:19:56;;;;;;;21.40;14.00;;;;;;;21.67;100.00;99968.77;124631;1103;104211;-82
2023/08/01 06:22:50;;;;;;;20.70;12.87;;;;;;;21.71;100.00;99965.16;124594;1102;104230;-82
2023/08/01 06:25:29;;;;;;;23.25;14.10;;;;;;;21.78;100.00;99964.11;124666;1106;102897;-80
2023/08/01 06:28:08;;;;;;;19.93;12.83;;;;;;;21.85;100.00;99967.56;125123;1105;101941;-81
2023/08/01 06:30:53;;;;;;;19.80;12.80;;;;;;;21.90;100.00;99973.69;125105;1102;104217;-82
2023/08/01 06:33:30;;;;;;;21.70;13.20;;;;;;;21.92;100.00;99969.19;125325;1106;102858;-79
2023/08/01 06:36:04;;;;;;;22.87;14.03;;;;;;;21.95;100.00;99966.45;124829;1106;104224;-80
2023/08/01 06:38:52;;;;;;;21.23;13.27;;;;;;;22.06;100.00;99963.58;124549;1103;108686;-80
2023/08/01 06:41:28;;;;;;;22.10;14.30;;;;;;;22.11;100.00;99961.71;124740;1105;102433;-80
2023/08/01 06:44:17;;;;;;;20.40;13.17;;;;;;;22.17;100.00;99961.55;124723;1102;103149;-78
2023/08/01 06:46:54;;;;;;;19.97;12.53;;;;;;;22.24;100.00;99947.16;124628;1102;102901;-77
2023/08/01 06:49:31;;;;;;;21.70;13.00;;;;;;;22.34;100.00;99947.00;124434;1103;104191;-78
2023/08/01 06:52:19;;;;;;;21.40;13.67;;;;;;;22.43;100.00;99941.46;124376;1106;104198;-79
2023/08/01 06:55:36;;;;;;;20.23;12.43;;;;;;;22.55;100.00;99941.19;124580;1102;104245;-83
2023/08/01 06:58:15;;;;;;;20.43;11.20;;;;;;;22.70;100.00;99941.75;125368;1102;104255;-81
2023/08/01 07:00:51;;;;;;;19.17;10.70;;;;;;;22.78;100.00;99937.98;124558;1106;103626;-80
2023/08/01 07:03:29;;;;;;;16.97;10.70;;;;;;;22.84;100.00;99936.95;124513;1105;104221;-82
2023/08/01 07:06:11;;;;;;;20.50;11.40;;;;;;;22.96;100.00;99947.36;124547;1105;104325;-80
2023/08/01 07:08:47;;;;;;;17.20;9.97;;;;;;;23.11;100.00;99948.83;124468;1102;104251;-84
2023/08/01 07:11:23;;;;;;;15.10;8.93;;;;;;;23.29;100.00;99943.92;125351;1105;102771;-79
2023/08/01 07:14:09;;;;;;;16.17;9.27;;;;;;;23.46;100.00;99947.03;124514;1102;104166;-77
2023/08/01 07:16:42;;;;;;;19.43;9.50;;;;;;;23.62;100.00;99949.30;124303;1105;104411;-81
2023/08/01 07:19:23;;;;;;;14.07;8.53;;;;;;;23.81;100.00;99946.99;124281;1105;102239;-81
2023/08/01 07:22:17;;;;;;;15.57;8.37;;;;;;;24.04;100.00;99949.06;125078;1103;103152;-79
2023/08/01 07:24:57;;;;;;;14.70;7.87;;;;;;;24.24;100.00;99948.48;125836;1102;104251;-83
2023/08/01 07:27:32;;;;;;;15.33;8.20;;;;;;;24.41;100.00;99950.67;125105;1105;103325;-82
2023/08/01 07:30:09;;;;;;;14.40;8.40;;;;;;;24.71;100.00;99943.53;124496;1102;104239;-81
2023/08/01 07:32:44;;;;;;;18.73;9.00;;;;;;;24.99;100.00;99947.98;125116;1102;103479;-81
2023/08/01 07:35:15;;;;;;;16.50;8.93;;;;;;;25.09;100.00;99945.90;125397;1102;103038;-81
2023/08/01 07:37:56;;;;;;;13.53;7.60;;;;;;;25.19;100.00;99943.78;125342;1102;102743;-82
2023/08/01 07:40:27;;;;;;;14.93;7.83;;;;;;;25.37;100.00;99956.62;125337;1106;104169;-79
2023/08/01 07:43:01;;;;;;;12.13;7.33;;;;;;;25.51;100.00;99952.56;124506;1102;104182;-80
2023/08/01 07:45:41;;;;;;;12.50;7.53;;;;;;;25.53;100.00;99945.34;124717;1105;104255;-79
2023/08/01 07:48:12;;;;;;;17.67;8.60;;;;;;;25.50;100.00;99956.20;124427;1105;102499;-82
2023/08/01 07:50:46;;;;;;;16.33;9.43;;;;;;;25.42;98.86;99951.95;124517;1102;104629;-82
2023/08/01 07:53:19;;;;;;;15.07;8.50;;;;;;;25.38;99.07;99960.17;124735;1102;104177;-80
2023/08/01 07:56:20;;;;;;;;;;;;;;;;;;;;;
2023/08/01 07:58:55;;;;;;;15.33;8.47;;;;;;;25.26;98.69;99948.89;124980;1102;104172;-82
2023/08/01 08:01:31;;;;;;;16.57;7.50;;;;;;;25.22;97.94;99955.28;125147;1105;104114;-82
2023/08/01 08:04:05;;;;;;;13.47;8.00;;;;;;;25.10;96.00;99948.53;125280;1105;103394;-83
2023/08/01 08:06:40;;;;;;;15.90;8.57;;;;;;;25.02;95.47;99947.88;125234;1105;103351;-83
2023/08/01 08:09:14;;;;;;;18.23;7.90;;;;;;;25.01;95.74;99951.52;125470;1105;102766;-81
2023/08/01 08:11:57;;;;;;;14.97;8.23;;;;;;;24.94;94.21;99942.77;125545;1102;104022;-82
2023/08/01 08:14:57;;;;;;;14.28;7.53;;;;;;;24.85;94.10;99945.75;125191;1102;102013;-82
2023/08/01 08:17:41;;;;;;;14.03;7.30;;;;;;;24.82;93.85;99942.30;125365;1102;102824;-82
2023/08/01 08:20:45;;;;;;;11.13;7.07;;;;;;;24.77;93.66;99942.44;125393;1102;102870;-83
2023/08/01 08:23:52;;;;;;;14.80;7.23;;;;;;;24.74;92.88;99934.48;125594;1102;102997;-83
2023/08/01 08:26:46;;;;;;;12.43;7.47;;;;;;;24.74;92.68;99934.48;125312;1102;102179;-82
2023/08/01 08:29:28;;;;;;;10.37;6.20;;;;;;;24.74;92.45;99927.34;125326;1101;104258;-80
2023/08/01 08:32:27;;;;;;;9.97;5.93;;;;;;;24.72;91.95;99926.48;125405;1102;102997;-81
2023/08/01 08:35:19;;;;;;;12.83;6.27;;;;;;;24.78;91.64;99920.06;125375;1102;104182;-81
2023/08/01 08:38:04;;;;;;;10.37;5.50;;;;;;;24.82;91.41;99921.70;125367;1105;102684;-82
2023/08/01 08:40:51;;;;;;;11.03;5.90;;;;;;;24.90;91.00;99924.13;125340;1102;103212;-81
2023/08/01 08:43:49;;;;;;;8.00;5.10;;;;;;;25.04;90.69;99921.89;125272;1102;104203;-79
2023/08/01 08:46:33;;;;;;;7.83;4.73;;;;;;;25.25;89.20;99914.04;125165;1102;103760;-81
2023/08/01 08:49:22;;;;;;;10.20;4.70;;;;;;;25.48;89.85;99913.28;125353;1102;103057;-82
2023/08/01 08:52:12;;;;;;;7.53;4.70;;;;;;;25.69;89.71;99906.24;125216;1102;103186;-83
2023/08/01 08:54:46;;;;;;;6.20;4.50;;;;;;;25.80;89.62;99912.13;125616;1102;102169;-81
2023/08/01 08:57:23;;;;;;;7.25;4.97;;;;;;;25.94;89.17;99911.58;125261;1102;104195;-83
2023/08/01 09:00:01;;;;;;;7.87;4.97;;;;;;;26.02;87.80;99903.27;125313;1102;102212;-82
2023/08/01 09:02:50;;;;;;;6.27;4.50;;;;;;;26.00;87.74;99903.33;125485;1102;104239;-81
2023/08/01 09:05:37;;;;;;;13.43;5.33;;;;;;;25.98;87.28;99896.27;125431;1102;104053;-81
2023/08/01 09:08:19;;;;;;;11.37;4.53;;;;;;;26.01;86.48;99896.16;125330;1102;104245;-83
2023/08/01 09:10:53;;;;;;;7.63;4.50;;;;;;;26.12;86.77;99890.38;125918;1102;102616;-83
2023/08/01 09:13:28;;;;;;;6.85;4.20;;;;;;;26.31;86.07;99886.02;125760;1103;102499;-85
2023/08/01 09:16:12;;;;;;;8.43;4.60;;;;;;;26.45;84.42;99884.61;125241;1102;104211;-84
2023/08/01 09:18:54;;;;;;;5.47;3.47;;;;;;;26.59;84.32;99889.45;125152;1102;103251;-84
2023/08/01 09:21:30;;;;;;;4.97;3.47;;;;;;;26.78;83.76;99885.08;125126;1102;102206;-84
2023/08/01 09:24:15;;;;;;;6.37;3.50;;;;;;;26.77;82.36;99883.35;125095;1102;102315;-82
2023/08/01 09:26:49;;;;;;;5.87;3.70;;;;;;;26.65;81.33;99881.13;125232;1102;104197;-80
2023/08/01 09:29:21;;;;;;;;;;;;;;;26.51;80.71;99878.99;124571;1102;102586;-82
2023/08/01 09:31:57;;;;;;;3.87;3.27;;;;;;;26.38;80.06;99875.89;124416;1102;117825;-83
2023/08/01 09:34:31;;;;;;;3.60;3.30;;;;;;;26.30;79.49;99876.22;124385;1105;104326;-84
2023/08/01 09:37:12;;;;;;;10.30;3.40;;;;;;;26.29;78.70;99874.46;124606;1102;102299;-84
2023/08/01 09:39:46;;;;;;;6.07;3.90;;;;;;;26.28;78.58;99875.38;125226;1102;104303;-84
2023/08/01 09:42:21;;;;;;;10.07;4.10;;;;;;;26.29;77.58;99873.59;124936;1102;102123;-85
2023/08/01 09:44:57;;;;;;;5.67;3.90;;;;;;;26.26;76.95;99871.89;124449;1102;103648;-83
2023/08/01 09:47:49;;;;;;;4.10;3.40;;;;;;;26.26;77.23;99869.20;125254;1102;104277;-84
2023/08/01 09:50:25;;;;;;;4.87;3.50;;;;;;;26.18;75.99;99863.26;125298;1102;104393;-80
2023/08/01 09:53:08;;;;;;;5.60;3.10;;;;;;;26.35;75.35;99873.32;124631;1102;104143;-82
2023/08/01 09:55:44;;;;;;;6.87;3.63;;;;;;;26.55;73.83;99865.35;124814;1105;104248;-84
2023/08/01 09:58:18;;;;;;;5.03;3.50;;;;;;;26.80;74.68;99855.41;126043;1102;102785;-81
2023/08/01 10:00:52;;;;;;;;;;;;;;;27.10;75.05;99861.33;124797;1102;103236;-81
2023/08/01 10:03:31;;;;;;;5.60;3.10;;;;;;;27.32;74.52;99863.13;125951;1102;102684;-81
2023/08/01 10:06:09;;;;;;;5.23;2.97;;;;;;;27.54;73.92;99863.91;125482;1102;103876;-84
2023/08/01 10:08:44;;;;;;;7.30;3.30;;;;;;;27.62;72.99;99847.41;125633;1105;101770;-85
2023/08/01 10:11:17;;;;;;;4.70;3.30;;;;;;;27.75;72.66;99845.91;125548;1102;104257;-82
2023/08/01 10:13:50;;;;;;;;;;;;;;;28.05;72.88;99850.84;125726;1102;102939;-81
2023/08/01 10:16:28;;;;;;;4.77;3.30;;;;;;;28.35;72.00;99844.93;125694;1102;102096;-80
2023/08/01 10:19:04;;;;;;;6.97;3.40;;;;;;;28.47;69.21;99838.05;125217;1102;102715;-84
2023/08/01 10:21:41;;;;;;;5.63;2.67;;;;;;;28.73;69.80;99838.63;125254;1106;102557;-81
2023/08/01 10:24:20;;;;;;;7.23;3.50;;;;;;;28.88;69.33;99848.66;125372;1102;104204;-86
2023/08/01 10:26:57;;;;;;;6.70;3.20;;;;;;;28.82;68.90;99844.42;125414;1105;102640;-85
2023/08/01 10:29:43;;;;;;;7.73;2.90;;;;;;;28.70;67.84;99836.94;125262;1102;102389;-85
2023/08/01 10:32:28;;;;;;;5.10;3.13;;;;;;;28.57;67.44;99838.48;124790;1102;104259;-82
2023/08/01 10:35:03;;;;;;;3.90;2.90;;;;;;;28.43;67.41;99831.93;124512;1102;102035;-79
2023/08/01 10:37:47;;;;;;;6.40;2.83;;;;;;;28.51;66.78;99837.81;124526;1105;102736;-83
2023/08/01 10:40:23;;;;;;;5.53;2.90;;;;;;;28.67;66.35;99837.09;125493;1102;104202;-85
2023/08/01 10:43:00;;;;;;;10.40;3.75;;;;;;;28.75;66.43;99826.81;125344;1102;102288;-83
2023/08/01 10:45:38;;;;;;;8.20;2.87;;;;;;;28.77;65.51;99832.99;125097;1102;102562;-83
2023/08/01 10:48:25;;;;;;;5.07;2.97;;;;;;;28.77;65.22;99832.13;124286;1102;102441;-80
2023/08/01 10:51:02;;;;;;;3.98;2.72;;;;;;;28.84;64.83;99826.34;124229;1102;104251;-84
2023/08/01 10:53:53;;;;;;;5.23;3.30;;;;;;;28.96;64.31;99829.36;125091;1101;104172;-82
2023/08/01 10:56:31;;;;;;;6.87;2.90;;;;;;;29.10;63.89;99829.52;125323;1102;103615;-84
2023/08/01 10:59:08;;;;;;;5.53;2.80;;;;;;;29.13;63.50;99813.14;125249;1105;102650;-84
2023/08/01 11:01:51;;;;;;;4.37;2.70;;;;;;;29.16;63.03;99814.83;125070;1103;104306;-83
2023/08/01 11:04:42;;;;;;;5.10;2.87;;;;;;;29.21;62.40;99818.18;125241;1106;104807;-81
2023/08/01 11:07:39;;;;;;;3.43;2.67;;;;;;;29.18;62.10;99812.91;124294;1104;104175;-80
2023/08/01 11:10:16;;;;;;;5.90;2.90;;;;;;;29.13;61.49;99809.58;124295;1105;104057;-78
2023/08/01 11:13:01;;;;;;;;;;;;;;;;;;;;;
2023/08/01 11:16:04;;;;;;;;;;;;;;;;;;;;;
2023/08/01 11:18:49;;;;;;;4.13;2.67;;;;;;;29.16;61.24;99804.88;125277;1102;102611;-80
2023/08/01 11:21:44;;;;;;;4.10;2.50;;;;;;;29.02;61.04;99802.90;125244;1102;102611;-81
2023/08/01 11:24:27;;;;;;;4.57;2.90;;;;;;;28.96;60.26;99796.95;125031;1102;102895;-78
2023/08/01 11:27:05;;;;;;;3.77;2.53;;;;;;;28.90;59.89;99800.83;124258;1102;104235;-79
2023/08/01 11:29:50;;;;;;;5.50;3.25;;;;;;;28.80;59.74;99799.58;125020;1102;104194;-82
2023/08/01 11:32:40;;;;;;;2.77;2.57;;;;;;;28.75;59.96;99793.52;124465;1102;104259;-82
2023/08/01 11:35:19;;;;;;;3.67;2.90;;;;;;;28.65;59.62;99791.28;125336;1102;103911;-82
2023/08/01 11:37:58;;;;;;;6.00;2.80;;;;;;;28.56;59.04;99783.62;125118;1102;104183;-79
2023/08/01 11:41:01;;;;;;;3.63;2.83;;;;;;;28.48;59.01;99785.84;124504;1102;104232;-85
2023/08/01 11:44:07;;;;;;;4.37;2.90;;;;;;;28.44;58.52;99784.27;125793;1102;102766;-85
2023/08/01 11:46:46;;;;;;;3.37;2.70;;;;;;;28.38;58.51;99784.56;125394;1102;103001;-80
2023/08/01 11:49:39;;;;;;;4.97;2.87;;;;;;;28.41;58.49;99781.72;125429;1105;102502;-81
2023/08/01 11:52:35;;;;;;;7.53;2.90;;;;;;;28.61;57.85;99781.62;125118;1102;104102;-84